createdAt,value
2024-03-12T00:01:10.169Z,94.10
2024-03-12T00:03:44.596Z,94.30
2024-03-12T00:06:12.426Z,94.70
2024-03-12T00:08:40.814Z,94.70
2024-03-12T00:11:07.820Z,94.50
2024-03-12T00:13:35.313Z,94.10
2024-03-12T00:16:02.242Z,94.20
2024-03-12T00:18:29.119Z,94.30
2024-03-12T00:20:56.054Z,94.20
2024-03-12T00:23:26.806Z,94.10
2024-03-12T00:25:53.582Z,94.30
2024-03-12T00:28:20.723Z,94.70
2024-03-12T00:30:47.457Z,94.90
2024-03-12T00:33:14.384Z,95.20
2024-03-12T00:35:44.696Z,94.60
2024-03-12T00:38:11.910Z,94.50
2024-03-12T00:40:39.891Z,94.70
2024-03-12T00:43:08.656Z,94.40
2024-03-12T00:45:40.236Z,94.20
2024-03-12T00:48:10.918Z,94.00
2024-03-12T00:50:39.487Z,94.20
2024-03-12T00:53:08.550Z,94.50
2024-03-12T00:55:37.419Z,94.50
2024-03-12T00:58:08.640Z,94.70
2024-03-12T01:00:35.509Z,94.80
2024-03-12T01:03:02.566Z,94.90
2024-03-12T01:05:32.700Z,94.80
2024-03-12T01:08:01.141Z,94.70
2024-03-12T01:10:29.730Z,94.90
2024-03-12T01:13:01.825Z,95.40
2024-03-12T01:15:29.999Z,95.70
2024-03-12T01:17:57.861Z,95.50
2024-03-12T01:20:28.478Z,95.50
2024-03-12T01:22:55.970Z,95.30
2024-03-12T01:25:23.875Z,94.50
2024-03-12T01:27:57.240Z,94.80
2024-03-12T01:30:28.293Z,94.40
2024-03-12T01:32:56.433Z,94.60
2024-03-12T01:35:25.720Z,93.90
2024-03-12T01:37:58.192Z,93.80
2024-03-12T01:40:31.450Z,93.50
2024-03-12T01:43:04.983Z,93.80
2024-03-12T01:45:52.174Z,93.70
2024-03-12T01:48:19.248Z,93.10
2024-03-12T01:50:46.026Z,93.50
2024-03-12T01:53:13.472Z,93.50
2024-03-12T01:55:44.680Z,93.60
2024-03-12T01:58:18.411Z,93.50
2024-03-12T02:00:46.694Z,93.50
2024-03-12T02:03:14.054Z,93.70
2024-03-12T02:05:42.677Z,93.50
2024-03-12T02:08:10.709Z,94.00
2024-03-12T02:10:37.532Z,93.80
2024-03-12T02:13:04.513Z,93.70
2024-03-12T02:15:31.636Z,93.90
2024-03-12T02:17:58.502Z,93.90
2024-03-12T02:20:27.937Z,94.10
2024-03-12T02:22:56.584Z,94.40
2024-03-12T02:25:24.491Z,94.40
2024-03-12T02:27:53.860Z,94.50
2024-03-12T02:30:21.164Z,94.80
2024-03-12T02:32:49.390Z,94.90
2024-03-12T02:35:17.458Z,94.30
2024-03-12T02:37:44.981Z,94.10
2024-03-12T02:40:16.650Z,94.30
2024-03-12T02:42:44.625Z,94.30
2024-03-12T02:45:16.074Z,94.80
2024-03-12T02:47:44.141Z,94.40
2024-03-12T02:50:11.258Z,94.10
2024-03-12T02:52:39.054Z,94.60
2024-03-12T02:55:07.297Z,94.40
2024-03-12T02:57:34.274Z,93.70
2024-03-12T03:00:01.538Z,93.70
2024-03-12T03:02:30.231Z,93.70
2024-03-12T03:04:56.952Z,93.50
2024-03-12T03:07:26.052Z,93.40
2024-03-12T03:09:53.183Z,93.70
2024-03-12T03:12:20.405Z,94.00
2024-03-12T03:14:47.303Z,93.40
2024-03-12T03:17:17.238Z,93.10
2024-03-12T03:19:44.185Z,93.80
2024-03-12T03:22:11.052Z,93.40
2024-03-12T03:24:38.576Z,93.60
2024-03-12T03:27:05.690Z,93.80
2024-03-12T03:29:34.397Z,93.70
2024-03-12T03:32:01.533Z,93.90
2024-03-12T03:34:33.311Z,93.90
2024-03-12T03:37:00.771Z,93.80
2024-03-12T03:39:27.724Z,94.10
2024-03-12T03:41:56.286Z,94.10
2024-03-12T03:44:23.734Z,94.20
2024-03-12T03:46:50.702Z,94.00
2024-03-12T03:49:17.697Z,94.30
2024-03-12T03:51:44.529Z,94.20
2024-03-12T03:54:11.290Z,94.70
2024-03-12T03:56:38.795Z,94.80
2024-03-12T03:59:06.700Z,94.90
2024-03-12T04:01:34.661Z,94.80
2024-03-12T04:04:12.657Z,94.90
2024-03-12T04:06:40.225Z,94.70
2024-03-12T04:09:07.183Z,95.10
2024-03-12T04:11:34.939Z,95.20
2024-03-12T04:14:03.648Z,94.90
2024-03-12T04:16:33.093Z,95.00
2024-03-12T04:19:02.616Z,95.00
2024-03-12T04:21:29.474Z,95.00
2024-03-12T04:23:56.479Z,94.40
2024-03-12T04:26:23.403Z,94.60
2024-03-12T04:28:50.277Z,94.50
2024-03-12T04:31:17.688Z,94.30
2024-03-12T04:33:44.686Z,94.60
2024-03-12T04:36:14.916Z,94.30
2024-03-12T04:38:41.800Z,94.30
2024-03-12T04:41:08.617Z,94.40
2024-03-12T04:43:35.530Z,94.70
2024-03-12T04:46:02.328Z,94.30
2024-03-12T04:48:29.086Z,94.30
2024-03-12T04:50:56.379Z,94.00
2024-03-12T04:53:24.308Z,94.60
2024-03-12T04:55:51.283Z,94.80
2024-03-12T04:58:17.994Z,94.70
2024-03-12T05:00:45.013Z,94.30
2024-03-12T05:03:11.800Z,94.60
2024-03-12T05:05:38.521Z,94.20
2024-03-12T05:08:05.603Z,94.00
2024-03-12T05:10:32.267Z,94.20
2024-03-12T05:12:59.146Z,94.10
2024-03-12T05:15:26.149Z,93.50
2024-03-12T05:17:53.716Z,93.60
2024-03-12T05:20:24.349Z,93.60
2024-03-12T05:22:55.136Z,93.80
2024-03-12T05:25:27.773Z,93.60
2024-03-12T05:27:54.688Z,93.30
2024-03-12T05:30:23.980Z,92.90
2024-03-12T05:32:51.422Z,92.80
2024-03-12T05:35:21.194Z,93.10
2024-03-12T05:38:02.620Z,93.30
2024-03-12T05:40:52.710Z,93.10
2024-03-12T05:43:38.193Z,92.90
2024-03-12T05:46:23.565Z,93.60
2024-03-12T05:48:53.656Z,93.70
2024-03-12T05:51:21.290Z,93.70
2024-03-12T05:53:48.521Z,93.90
2024-03-12T05:56:18.299Z,93.60
2024-03-12T05:58:48.998Z,93.50
2024-03-12T06:01:16.743Z,93.90
2024-03-12T06:03:43.835Z,92.60
2024-03-12T06:06:10.818Z,92.40
2024-03-12T06:08:39.232Z,92.60
2024-03-12T06:11:08.892Z,93.00
2024-03-12T06:13:36.001Z,93.20
2024-03-12T06:16:06.198Z,93.80
2024-03-12T06:18:33.181Z,94.00
2024-03-12T06:21:00.072Z,94.50
2024-03-12T06:23:27.188Z,94.50
2024-03-12T06:25:54.618Z,94.60
2024-03-12T06:28:23.563Z,94.40
2024-03-12T06:30:50.764Z,94.30
2024-03-12T06:33:20.407Z,94.30
2024-03-12T06:35:48.987Z,94.30
2024-03-12T06:38:21.665Z,93.70
2024-03-12T06:40:51.445Z,93.40
2024-03-12T06:43:21.423Z,93.20
2024-03-12T06:45:48.483Z,93.40
2024-03-12T06:48:19.418Z,93.20
2024-03-12T06:50:47.077Z,93.40
2024-03-12T06:53:15.627Z,93.50
2024-03-12T06:55:42.886Z,93.70
2024-03-12T06:58:13.123Z,93.60
2024-03-12T07:00:45.700Z,93.60
2024-03-12T07:03:15.798Z,94.00
2024-03-12T07:05:48.222Z,93.90
2024-03-12T07:08:18.157Z,94.10
2024-03-12T07:10:46.386Z,93.70
2024-03-12T07:13:14.081Z,93.90
2024-03-12T07:15:42.837Z,93.70
2024-03-12T07:18:12.918Z,93.60
2024-03-12T07:20:40.467Z,93.70
2024-03-12T07:23:07.943Z,93.60
2024-03-12T07:25:35.059Z,93.50
2024-03-12T07:28:09.486Z,93.50
2024-03-12T07:30:41.820Z,93.70
2024-03-12T07:33:08.769Z,93.60
2024-03-12T07:35:36.233Z,94.20
2024-03-12T07:38:04.455Z,94.30
2024-03-12T07:40:31.912Z,94.40
2024-03-12T07:43:00.168Z,94.40
2024-03-12T07:45:27.894Z,94.00
2024-03-12T07:47:54.961Z,94.30
2024-03-12T07:50:22.657Z,94.50
2024-03-12T07:52:49.483Z,94.50
2024-03-12T07:55:16.487Z,94.70
2024-03-12T07:57:46.514Z,94.20
2024-03-12T08:00:17.410Z,94.40
2024-03-12T08:02:44.526Z,94.50
2024-03-12T08:05:13.375Z,94.00
2024-03-12T08:07:40.298Z,93.50
2024-03-12T08:10:07.702Z,93.80
2024-03-12T08:12:37.038Z,93.80
2024-03-12T08:15:08.280Z,94.00
2024-03-12T08:17:35.074Z,94.20
2024-03-12T08:20:01.816Z,94.30
2024-03-12T08:22:30.023Z,94.50
2024-03-12T08:24:56.721Z,94.30
2024-03-12T08:27:23.905Z,94.10
2024-03-12T08:29:50.793Z,94.10
2024-03-12T08:32:21.959Z,93.70
2024-03-12T08:34:48.635Z,93.80
2024-03-12T08:37:15.619Z,93.60
2024-03-12T08:39:42.556Z,93.60
2024-03-12T08:42:11.236Z,93.60
2024-03-12T08:44:38.492Z,93.90
2024-03-12T08:47:06.194Z,94.00
2024-03-12T08:49:34.493Z,94.40
2024-03-12T08:52:01.302Z,94.10
2024-03-12T08:54:28.721Z,94.30
2024-03-12T08:56:55.897Z,94.40
2024-03-12T08:59:22.796Z,94.30
2024-03-12T09:01:52.423Z,94.30
2024-03-12T09:04:20.578Z,93.70
2024-03-12T09:06:50.712Z,94.00
2024-03-12T09:09:19.686Z,93.80
2024-03-12T09:11:47.814Z,93.70
2024-03-12T09:14:14.821Z,93.40
2024-03-12T09:16:41.993Z,93.70
2024-03-12T09:19:10.239Z,93.40
2024-03-12T09:21:37.668Z,93.40
2024-03-12T09:24:06.302Z,93.50
2024-03-12T09:26:34.798Z,92.80
2024-03-12T09:29:02.046Z,92.50
2024-03-12T09:31:29.125Z,93.00
2024-03-12T09:33:56.630Z,92.80
2024-03-12T09:36:25.666Z,92.60
2024-03-12T09:38:52.738Z,92.60
2024-03-12T09:41:22.281Z,92.70
2024-03-12T09:43:50.005Z,92.90
2024-03-12T09:46:18.517Z,93.00
2024-03-12T09:48:47.149Z,92.80
2024-03-12T09:51:14.554Z,92.90
2024-03-12T09:53:43.280Z,93.00
2024-03-12T09:56:12.187Z,93.20
2024-03-12T09:58:39.559Z,93.10
2024-03-12T10:01:07.497Z,92.60
2024-03-12T10:03:38.389Z,93.00
2024-03-12T10:06:07.996Z,93.00
2024-03-12T10:08:36.243Z,93.50
2024-03-12T10:11:09.791Z,93.10
2024-03-12T10:13:37.683Z,93.20
2024-03-12T10:16:05.221Z,93.20
2024-03-12T10:18:34.467Z,93.30
2024-03-12T10:21:04.772Z,94.00
2024-03-12T10:23:36.854Z,93.70
2024-03-12T10:26:10.584Z,93.10
2024-03-12T10:28:38.978Z,93.00
2024-03-12T10:31:11.866Z,91.90
2024-03-12T10:33:49.487Z,91.60
2024-03-12T10:36:33.361Z,91.70
2024-03-12T10:39:01.220Z,92.10
2024-03-12T10:41:29.627Z,92.10
2024-03-12T10:44:11.930Z,91.50
2024-03-12T10:46:44.586Z,91.00
2024-03-12T10:49:19.116Z,91.00
2024-03-12T10:51:47.147Z,90.40
2024-03-12T10:54:15.414Z,90.80
2024-03-12T10:56:43.168Z,90.80
2024-03-12T10:59:13.496Z,89.60
2024-03-12T11:01:41.860Z,89.40
2024-03-12T11:04:13.801Z,90.10
2024-03-12T11:06:40.894Z,90.30
2024-03-12T11:09:09.228Z,89.50
2024-03-12T11:11:36.417Z,89.20
2024-03-12T11:14:07.976Z,88.20
2024-03-12T11:16:37.714Z,89.00
2024-03-12T11:19:20.127Z,89.10
2024-03-12T11:21:51.282Z,90.10
2024-03-12T11:24:43.934Z,89.10
2024-03-12T11:27:35.830Z,88.60
2024-03-12T11:30:06.446Z,88.50
2024-03-12T11:32:43.304Z,88.90
2024-03-12T11:35:19.244Z,87.70
2024-03-12T11:38:01.882Z,86.30
2024-03-12T11:40:32.726Z,85.70
2024-03-12T11:43:00.259Z,86.00
2024-03-12T11:45:48.220Z,85.60
2024-03-12T11:48:23.160Z,84.40
2024-03-12T11:50:57.355Z,84.50
2024-03-12T11:53:26.869Z,84.40
2024-03-12T11:56:12.019Z,84.90
2024-03-12T11:58:53.621Z,84.00
2024-03-12T12:01:27.528Z,84.80
2024-03-12T12:04:01.758Z,85.40
2024-03-12T12:06:29.250Z,83.70
2024-03-12T12:09:00.688Z,83.20
2024-03-12T12:11:30.021Z,83.70
2024-03-12T12:14:00.557Z,82.70
2024-03-12T12:16:29.516Z,82.60
2024-03-12T12:19:06.649Z,82.50
2024-03-12T12:21:34.638Z,81.10
2024-03-12T12:24:05.140Z,81.00
2024-03-12T12:26:37.755Z,81.30
2024-03-12T12:29:05.747Z,80.20
2024-03-12T12:31:38.202Z,80.10
2024-03-12T12:34:07.703Z,79.90
2024-03-12T12:36:39.584Z,79.70
2024-03-12T12:39:11.224Z,80.30
2024-03-12T12:41:43.785Z,80.10
2024-03-12T12:44:16.969Z,80.00
2024-03-12T12:46:45.254Z,79.70
2024-03-12T12:49:15.072Z,80.30
2024-03-12T12:51:43.135Z,78.90
2024-03-12T12:54:10.808Z,78.20
2024-03-12T12:56:42.733Z,78.10
2024-03-12T12:59:17.786Z,78.00
2024-03-12T13:01:49.510Z,79.10
2024-03-12T13:04:25.577Z,79.70
2024-03-12T13:06:56.081Z,79.40
2024-03-12T13:09:28.849Z,79.00
2024-03-12T13:11:57.439Z,78.20
2024-03-12T13:14:28.017Z,77.80
2024-03-12T13:16:55.593Z,78.30
2024-03-12T13:19:24.039Z,78.00
2024-03-12T13:21:51.730Z,78.60
2024-03-12T13:24:21.393Z,78.90
2024-03-12T13:26:52.801Z,78.70
2024-03-12T13:29:19.828Z,78.90
2024-03-12T13:31:47.750Z,79.40
2024-03-12T13:34:17.603Z,79.60
2024-03-12T13:36:45.705Z,79.60
2024-03-12T13:39:16.391Z,80.60
2024-03-12T13:41:43.666Z,80.60
2024-03-12T13:44:18.297Z,81.10
2024-03-12T13:46:45.201Z,80.80
2024-03-12T13:49:15.705Z,81.40
2024-03-12T13:51:48.911Z,81.50
2024-03-12T13:54:18.851Z,80.60
2024-03-12T13:56:46.635Z,80.50
2024-03-12T13:59:28.053Z,79.60
2024-03-12T14:01:55.069Z,79.80
2024-03-12T14:04:22.476Z,78.60
2024-03-12T14:06:49.553Z,78.70
2024-03-12T14:09:16.636Z,77.70
2024-03-12T14:11:43.700Z,77.00
2024-03-12T14:14:11.115Z,76.40
2024-03-12T14:19:07.093Z,75.90
2024-03-12T14:21:34.738Z,76.40
2024-03-12T14:24:04.031Z,75.80
2024-03-12T14:26:31.204Z,75.90
2024-03-12T14:28:58.051Z,76.20
2024-03-12T14:31:26.622Z,75.40
2024-03-12T14:33:53.946Z,74.50
2024-03-12T14:36:21.035Z,74.60
2024-03-12T14:38:50.098Z,74.70
2024-03-12T14:41:19.113Z,74.70
2024-03-12T14:43:46.013Z,74.30
2024-03-12T14:46:13.588Z,75.50
2024-03-12T14:48:40.618Z,75.50
2024-03-12T14:51:07.755Z,74.90
2024-03-12T14:53:34.564Z,75.00
2024-03-12T14:56:02.835Z,75.30
2024-03-12T14:58:29.851Z,75.40
2024-03-12T15:00:56.865Z,75.30
2024-03-12T15:05:58.719Z,74.90
2024-03-12T15:08:25.618Z,75.40
2024-03-12T15:10:53.110Z,75.10
2024-03-12T15:13:21.562Z,75.60
2024-03-12T15:15:48.514Z,75.90
2024-03-12T15:18:15.585Z,75.50
2024-03-12T15:20:43.381Z,75.50
2024-03-12T15:23:10.791Z,75.70
2024-03-12T15:25:37.858Z,75.90
2024-03-12T15:28:05.361Z,75.60
2024-03-12T15:30:34.586Z,75.80
2024-03-12T15:33:01.850Z,75.40
2024-03-12T15:35:29.117Z,75.20
2024-03-12T15:37:59.462Z,74.60
2024-03-12T15:40:26.449Z,74.70
2024-03-12T15:42:53.633Z,73.80
2024-03-12T15:45:21.847Z,74.50
2024-03-12T15:47:48.842Z,75.50
2024-03-12T15:50:18.934Z,76.00
2024-03-12T15:52:46.488Z,76.20
2024-03-12T15:55:14.341Z,75.90
2024-03-12T15:57:43.294Z,75.40
2024-03-12T16:00:14.747Z,75.60
2024-03-12T16:02:42.432Z,76.10
2024-03-12T16:05:09.643Z,76.80
2024-03-12T16:07:36.612Z,77.10
2024-03-12T16:10:05.380Z,77.40
2024-03-12T16:12:32.533Z,77.70
2024-03-12T16:14:59.620Z,77.80
2024-03-12T16:19:57.653Z,79.20
2024-03-12T16:22:24.583Z,79.10
2024-03-12T16:24:51.548Z,79.20
2024-03-12T16:27:18.464Z,79.20
2024-03-12T16:29:47.476Z,79.80
2024-03-12T16:32:14.415Z,79.60
2024-03-12T16:34:41.286Z,79.40
2024-03-12T16:37:09.895Z,79.30
2024-03-12T16:39:39.782Z,79.60
2024-03-12T16:42:07.192Z,79.70
2024-03-12T16:44:34.065Z,79.70
2024-03-12T16:47:05.777Z,79.70
2024-03-12T16:49:34.057Z,80.00
2024-03-12T16:52:02.284Z,80.50
2024-03-12T16:54:31.247Z,80.80
2024-03-12T16:56:59.926Z,82.20
2024-03-12T17:01:55.048Z,87.00
2024-03-12T17:04:24.705Z,87.80
2024-03-12T17:06:59.398Z,87.30
2024-03-12T17:09:26.543Z,85.40
2024-03-12T17:11:53.864Z,88.20
2024-03-12T17:14:27.650Z,88.50
2024-03-12T17:17:00.718Z,88.50
2024-03-12T17:19:28.527Z,88.30
2024-03-12T17:22:17.292Z,86.90
2024-03-12T17:24:52.076Z,85.90
2024-03-12T17:27:20.292Z,85.50
2024-03-12T17:29:50.363Z,85.10
2024-03-12T17:32:17.664Z,84.90
2024-03-12T17:34:44.805Z,86.40
2024-03-12T17:37:16.981Z,85.50
2024-03-12T17:39:49.062Z,85.30
2024-03-12T17:42:21.142Z,85.40
2024-03-12T17:44:52.062Z,84.60
2024-03-12T17:47:22.116Z,83.30
2024-03-12T17:49:53.105Z,83.10
2024-03-12T17:52:20.255Z,83.10
2024-03-12T17:54:47.662Z,84.00
2024-03-12T17:57:15.647Z,83.90
2024-03-12T17:59:44.364Z,84.20
2024-03-12T18:02:13.803Z,82.90
2024-03-12T18:04:41.877Z,83.00
2024-03-12T18:07:23.286Z,83.00
2024-03-12T18:09:58.034Z,83.00
2024-03-12T18:12:25.104Z,83.00
2024-03-12T18:14:52.198Z,83.30
2024-03-12T18:17:21.822Z,84.00
2024-03-12T18:19:48.934Z,83.90
2024-03-12T18:22:17.345Z,83.30
2024-03-12T18:24:45.150Z,83.20
2024-03-12T18:27:11.951Z,83.10
2024-03-12T18:29:39.077Z,83.30
2024-03-12T18:32:07.327Z,83.70
2024-03-12T18:34:34.433Z,83.30
2024-03-12T18:37:02.877Z,83.10
2024-03-12T18:39:29.655Z,83.30
2024-03-12T18:41:56.502Z,83.30
2024-03-12T18:44:23.277Z,83.10
2024-03-12T18:46:50.632Z,83.60
2024-03-12T18:49:19.527Z,83.80
2024-03-12T18:52:05.740Z,83.80
2024-03-12T18:54:46.250Z,83.60
2024-03-12T18:57:35.761Z,84.30
2024-03-12T19:00:32.333Z,84.90
2024-03-12T19:03:16.546Z,84.90
2024-03-12T19:06:07.373Z,84.30
2024-03-12T19:09:01.834Z,84.50
2024-03-12T19:11:39.151Z,84.40
2024-03-12T19:14:23.955Z,84.80
2024-03-12T19:17:16.212Z,85.00
2024-03-12T19:20:01.489Z,84.60
2024-03-12T19:22:35.322Z,84.80
2024-03-12T19:25:25.208Z,85.40
2024-03-12T19:28:13.908Z,84.80
2024-03-12T19:30:59.374Z,85.70
2024-03-12T19:33:31.891Z,84.30
2024-03-12T19:36:13.982Z,84.10
2024-03-12T19:38:59.029Z,83.90
2024-03-12T19:41:39.142Z,84.40
2024-03-12T19:44:09.864Z,84.40
2024-03-12T19:46:43.964Z,85.00
2024-03-12T19:49:17.279Z,84.50
2024-03-12T19:51:55.739Z,84.40
2024-03-12T19:54:30.424Z,83.90
2024-03-12T19:57:13.586Z,83.60
2024-03-12T20:00:04.305Z,83.90
2024-03-12T20:02:49.398Z,83.80
2024-03-12T20:05:29.801Z,84.10
2024-03-12T20:08:07.385Z,84.20
2024-03-12T20:10:50.907Z,84.80
2024-03-12T20:13:38.078Z,84.70
2024-03-12T20:16:20.479Z,85.10
2024-03-12T20:19:06.231Z,85.40
2024-03-12T20:21:42.450Z,86.20
2024-03-12T20:24:18.642Z,86.60
2024-03-12T20:26:49.093Z,85.70
2024-03-12T20:29:32.176Z,85.50
2024-03-12T20:31:59.572Z,85.30
2024-03-12T20:34:39.907Z,85.00
2024-03-12T20:37:27.265Z,84.80
2024-03-12T20:39:59.283Z,84.60
2024-03-12T20:42:40.340Z,84.70
2024-03-12T20:45:11.815Z,84.70
2024-03-12T20:47:42.661Z,84.70
2024-03-12T20:50:24.500Z,84.30
2024-03-12T20:53:04.870Z,84.40
2024-03-12T20:55:45.832Z,84.40
2024-03-12T20:58:27.755Z,84.70
2024-03-12T21:01:05.256Z,85.00
2024-03-12T21:03:36.108Z,85.40
2024-03-12T21:06:10.388Z,85.60
2024-03-12T21:08:59.508Z,85.70
2024-03-12T21:11:43.176Z,85.10
2024-03-12T21:14:30.558Z,86.10
2024-03-12T21:17:10.461Z,86.80
2024-03-12T21:19:52.392Z,86.30
2024-03-12T21:22:28.891Z,87.00
2024-03-12T21:25:22.458Z,86.40
2024-03-12T21:27:55.329Z,86.90
2024-03-12T21:30:26.472Z,86.60
2024-03-12T21:33:03.465Z,86.60
2024-03-12T21:35:30.614Z,86.20
2024-03-12T21:40:53.234Z,86.40
2024-03-12T21:43:25.905Z,86.40
2024-03-12T21:46:01.026Z,86.40
2024-03-12T21:48:45.030Z,86.30
2024-03-12T21:51:23.283Z,86.60
2024-03-12T21:54:15.773Z,87.00
2024-03-12T21:56:54.783Z,86.20
2024-03-12T21:59:39.403Z,87.20
2024-03-12T22:02:33.440Z,86.90
2024-03-12T22:05:27.398Z,86.60
2024-03-12T22:08:05.923Z,86.10
2024-03-12T22:10:48.720Z,86.30
2024-03-12T22:13:31.711Z,86.40
2024-03-12T22:16:14.168Z,85.60
2024-03-12T22:19:10.052Z,85.60
2024-03-12T22:22:26.958Z,85.90
2024-03-12T22:25:06.519Z,86.20
2024-03-12T22:28:06.116Z,85.40
2024-03-12T22:31:19.193Z,85.80
2024-03-12T22:34:08.141Z,86.30
2024-03-12T22:36:54.644Z,86.40
2024-03-12T22:39:52.256Z,86.70
2024-03-12T22:42:42.612Z,86.20
2024-03-12T22:45:41.898Z,86.20
2024-03-12T22:48:48.044Z,86.90
2024-03-12T22:51:55.792Z,87.00
2024-03-12T22:54:47.825Z,86.00
2024-03-12T23:01:20.213Z,85.80
2024-03-12T23:04:14.837Z,85.60
2024-03-12T23:07:19.892Z,85.90
2024-03-12T23:10:31.985Z,86.00
2024-03-12T23:13:14.871Z,85.50
2024-03-12T23:16:05.049Z,85.60
2024-03-12T23:18:56.804Z,86.10
2024-03-12T23:24:50.049Z,85.50
2024-03-12T23:27:59.173Z,85.40
2024-03-12T23:31:00.973Z,85.30
2024-03-12T23:36:34.215Z,86.20
2024-03-12T23:39:01.170Z,86.00
2024-03-12T23:41:31.263Z,86.80
2024-03-12T23:43:58.485Z,86.90
2024-03-12T23:46:25.852Z,86.50
2024-03-12T23:48:56.723Z,87.10
2024-03-12T23:51:26.313Z,86.80
2024-03-12T23:53:55.528Z,86.90
2024-03-12T23:56:22.660Z,86.20
2024-03-12T23:58:49.483Z,86.80
